createdAt,value
2022-10-28T00:00:01.097Z,21.10
2022-10-28T00:01:01.072Z,21.21
2022-10-28T00:02:01.204Z,21.07
2022-10-28T00:03:01.117Z,21.12
2022-10-28T00:04:01.088Z,21.07
2022-10-28T00:05:01.074Z,21.12
2022-10-28T00:06:01.066Z,21.13
2022-10-28T00:07:01.072Z,21.17
2022-10-28T00:08:01.069Z,21.12
2022-10-28T00:09:01.075Z,21.07
2022-10-28T00:10:01.098Z,21.13
2022-10-28T00:11:01.081Z,21.14
2022-10-28T00:12:01.058Z,21.13
2022-10-28T00:13:01.060Z,21.17
2022-10-28T00:14:01.058Z,21.12
2022-10-28T00:15:01.056Z,21.13
2022-10-28T00:16:01.065Z,21.14
2022-10-28T00:17:01.063Z,21.13
2022-10-28T00:18:01.061Z,21.14
2022-10-28T00:19:01.050Z,21.01
2022-10-28T00:20:01.052Z,21.16
2022-10-28T00:21:01.058Z,21.07
2022-10-28T00:22:01.065Z,21.14
2022-10-28T00:23:01.067Z,21.03
2022-10-28T00:24:01.060Z,21.14
2022-10-28T00:25:01.056Z,21.14
2022-10-28T00:26:01.069Z,21.12
2022-10-28T00:27:01.050Z,21.13
2022-10-28T00:28:01.043Z,21.06
2022-10-28T00:29:01.045Z,21.09
2022-10-28T00:30:01.046Z,21.13
2022-10-28T00:31:01.037Z,21.14
2022-10-28T00:32:01.047Z,21.03
2022-10-28T00:33:01.045Z,21.04
2022-10-28T00:34:01.064Z,21.14
2022-10-28T00:35:01.045Z,21.04
2022-10-28T00:36:04.257Z,21.16
2022-10-28T00:37:01.046Z,21.04
2022-10-28T00:38:01.037Z,21.12
2022-10-28T00:39:01.037Z,21.13
2022-10-28T00:40:01.031Z,21.09
2022-10-28T00:41:01.037Z,21.06
2022-10-28T00:42:01.125Z,21.07
2022-10-28T00:43:01.028Z,21.13
2022-10-28T00:44:01.027Z,21.13
2022-10-28T00:45:01.026Z,21.10
2022-10-28T00:46:01.033Z,21.04
2022-10-28T00:47:01.029Z,21.04
2022-10-28T00:48:01.024Z,21.10
2022-10-28T00:49:01.022Z,21.06
2022-10-28T00:50:01.023Z,21.01
2022-10-28T00:51:01.021Z,21.12
2022-10-28T00:52:01.022Z,21.13
2022-10-28T00:53:01.013Z,21.04
2022-10-28T00:54:01.019Z,21.03
2022-10-28T00:55:01.027Z,21.09
2022-10-28T00:56:01.021Z,21.07
2022-10-28T00:57:01.042Z,21.13
2022-10-28T00:58:01.032Z,21.04
2022-10-28T00:59:01.011Z,21.10
2022-10-28T01:00:01.022Z,21.07
2022-10-28T01:01:01.011Z,21.10
2022-10-28T01:02:01.168Z,21.12
2022-10-28T01:03:01.010Z,21.03
2022-10-28T01:04:01.001Z,21.04
2022-10-28T01:05:01.009Z,21.01
2022-10-28T01:06:01.002Z,21.04
2022-10-28T01:07:01.008Z,21.03
2022-10-28T01:08:01.003Z,21.06
2022-10-28T01:09:01.010Z,21.03
2022-10-28T01:10:00.996Z,21.04
2022-10-28T01:11:00.997Z,21.04
2022-10-28T01:12:00.997Z,21.10
2022-10-28T01:13:00.992Z,21.04
2022-10-28T01:14:01.015Z,21.07
2022-10-28T01:15:01.009Z,21.03
2022-10-28T01:16:00.987Z,21.03
2022-10-28T01:17:00.989Z,21.03
2022-10-28T01:18:00.987Z,21.04
2022-10-28T01:19:00.986Z,21.07
2022-10-28T01:20:00.999Z,21.14
2022-10-28T01:21:00.989Z,21.09
2022-10-28T01:22:00.990Z,21.03
2022-10-28T01:23:00.980Z,21.06
2022-10-28T01:24:00.980Z,21.09
2022-10-28T01:25:00.979Z,21.10
2022-10-28T01:26:00.987Z,21.07
2022-10-28T01:27:00.977Z,21.06
2022-10-28T01:28:00.997Z,21.10
2022-10-28T01:29:00.975Z,21.01
2022-10-28T01:30:01.061Z,21.09
2022-10-28T01:31:00.981Z,21.03
2022-10-28T01:32:00.970Z,21.09
2022-10-28T01:33:00.988Z,21.16
2022-10-28T01:34:00.975Z,21.04
2022-10-28T01:35:00.979Z,21.03
2022-10-28T01:36:00.973Z,21.07
2022-10-28T01:37:00.971Z,21.03
2022-10-28T01:38:00.968Z,21.04
2022-10-28T01:39:00.970Z,21.01
2022-10-28T01:40:00.960Z,21.06
2022-10-28T01:41:00.970Z,21.01
2022-10-28T01:42:00.960Z,21.09
2022-10-28T01:43:00.965Z,21.06
2022-10-28T01:44:00.956Z,21.04
2022-10-28T01:45:00.972Z,21.12
2022-10-28T01:46:00.981Z,21.06
2022-10-28T01:47:00.964Z,21.03
2022-10-28T01:48:00.949Z,21.01
2022-10-28T01:49:00.954Z,21.06
2022-10-28T01:50:00.959Z,21.09
2022-10-28T01:51:00.966Z,21.13
2022-10-28T01:52:00.954Z,21.04
2022-10-28T01:53:00.952Z,21.01
2022-10-28T01:54:00.956Z,21.07
2022-10-28T01:55:00.946Z,21.06
2022-10-28T01:56:00.943Z,21.04
2022-10-28T01:57:00.951Z,21.10
2022-10-28T01:58:00.957Z,21.07
2022-10-28T01:59:00.963Z,21.10
2022-10-28T02:00:00.951Z,21.12
2022-10-28T02:01:00.999Z,20.98
2022-10-28T02:03:00.934Z,21.12
2022-10-28T02:04:00.945Z,21.01
2022-10-28T02:05:00.942Z,21.07
2022-10-28T02:06:00.955Z,21.06
2022-10-28T02:07:00.945Z,21.09
2022-10-28T02:08:00.927Z,21.07
2022-10-28T02:09:00.931Z,21.06
2022-10-28T02:10:00.935Z,21.03
2022-10-28T02:11:00.939Z,21.01
2022-10-28T02:12:00.931Z,21.01
2022-10-28T02:13:00.935Z,21.04
2022-10-28T02:14:00.931Z,21.06
2022-10-28T02:15:00.994Z,21.03
2022-10-28T02:16:00.922Z,21.06
2022-10-28T02:17:00.929Z,21.09
2022-10-28T02:18:00.943Z,21.12
2022-10-28T02:19:00.938Z,21.01
2022-10-28T02:20:00.931Z,21.10
2022-10-28T02:21:00.923Z,21.06
2022-10-28T02:22:00.915Z,21.13
2022-10-28T02:23:00.924Z,21.03
2022-10-28T02:24:00.920Z,21.04
2022-10-28T02:25:00.925Z,21.09
2022-10-28T02:26:00.911Z,21.03
2022-10-28T02:27:00.919Z,21.07
2022-10-28T02:28:01.041Z,21.07
2022-10-28T02:29:00.935Z,21.09
2022-10-28T02:30:00.909Z,21.04
2022-10-28T02:31:00.915Z,21.07
2022-10-28T02:32:00.904Z,21.04
2022-10-28T02:33:00.906Z,20.98
2022-10-28T02:34:00.929Z,21.01
2022-10-28T02:35:00.898Z,21.06
2022-10-28T02:36:00.902Z,21.09
2022-10-28T02:37:00.907Z,21.07
2022-10-28T02:38:00.902Z,21.10
2022-10-28T02:39:00.903Z,21.03
2022-10-28T02:40:00.905Z,21.06
2022-10-28T02:41:00.895Z,21.06
2022-10-28T02:42:00.902Z,21.07
2022-10-28T02:43:00.893Z,21.07
2022-10-28T02:44:00.888Z,21.10
2022-10-28T02:45:00.892Z,21.13
2022-10-28T02:46:00.895Z,21.07
2022-10-28T02:47:00.890Z,21.04
2022-10-28T02:48:00.891Z,21.03
2022-10-28T02:49:00.892Z,21.10
2022-10-28T02:50:00.899Z,21.06
2022-10-28T02:51:00.881Z,21.09
2022-10-28T02:52:00.883Z,21.04
2022-10-28T02:53:00.887Z,21.03
2022-10-28T02:54:00.890Z,21.06
2022-10-28T02:55:00.883Z,21.07
2022-10-28T02:56:00.879Z,21.06
2022-10-28T02:57:00.882Z,21.01
2022-10-28T02:58:00.875Z,21.03
2022-10-28T02:59:00.875Z,20.98
2022-10-28T03:00:00.878Z,21.07
2022-10-28T03:01:00.901Z,21.06
2022-10-28T03:02:01.062Z,21.01
2022-10-28T03:03:00.879Z,21.07
2022-10-28T03:04:00.878Z,21.07
2022-10-28T03:05:00.879Z,21.06
2022-10-28T03:06:00.880Z,21.04
2022-10-28T03:07:00.885Z,21.09
2022-10-28T03:08:00.870Z,21.04
2022-10-28T03:09:00.872Z,21.07
2022-10-28T03:10:00.861Z,21.03
2022-10-28T03:11:00.865Z,21.06
2022-10-28T03:12:00.863Z,21.03
2022-10-28T03:13:00.864Z,21.07
2022-10-28T03:14:00.867Z,21.01
2022-10-28T03:15:00.854Z,21.06
2022-10-28T03:16:00.862Z,21.04
2022-10-28T03:17:00.853Z,21.07
2022-10-28T03:18:00.857Z,21.07
2022-10-28T03:19:00.928Z,21.13
2022-10-28T03:20:00.858Z,21.03
2022-10-28T03:21:00.856Z,21.03
2022-10-28T03:22:00.867Z,21.07
2022-10-28T03:23:00.851Z,21.06
2022-10-28T03:24:00.853Z,21.03
2022-10-28T03:25:00.854Z,21.06
2022-10-28T03:26:00.851Z,21.09
2022-10-28T03:27:00.847Z,21.03
2022-10-28T03:28:00.847Z,21.07
2022-10-28T03:29:00.853Z,21.07
2022-10-28T03:30:00.846Z,21.04
2022-10-28T03:31:00.835Z,21.01
2022-10-28T03:32:00.839Z,21.06
2022-10-28T03:33:00.839Z,21.10
2022-10-28T03:34:00.839Z,21.07
2022-10-28T03:35:00.827Z,21.07
2022-10-28T03:36:00.838Z,21.10
2022-10-28T03:37:00.943Z,21.04
2022-10-28T03:38:00.852Z,21.09
2022-10-28T03:39:00.830Z,21.06
2022-10-28T03:40:00.827Z,21.03
2022-10-28T03:41:00.825Z,21.06
2022-10-28T03:42:00.824Z,21.04
2022-10-28T03:43:00.829Z,21.04
2022-10-28T03:44:00.822Z,21.03
2022-10-28T03:45:00.832Z,21.04
2022-10-28T03:46:00.817Z,20.98
2022-10-28T03:47:00.820Z,21.06
2022-10-28T03:48:00.822Z,21.07
2022-10-28T03:49:00.825Z,21.07
2022-10-28T03:50:00.816Z,21.06
2022-10-28T03:51:00.825Z,21.06
2022-10-28T03:52:00.815Z,21.04
2022-10-28T03:53:00.815Z,21.03
2022-10-28T03:54:00.827Z,21.04
2022-10-28T03:55:00.811Z,21.07
2022-10-28T03:56:00.812Z,21.04
2022-10-28T03:57:00.819Z,20.98
2022-10-28T03:58:00.811Z,20.98
2022-10-28T03:59:00.806Z,21.04
2022-10-28T04:00:00.810Z,21.04
2022-10-28T04:01:00.874Z,21.09
2022-10-28T04:02:00.971Z,21.01
2022-10-28T04:03:00.804Z,21.01
2022-10-28T04:04:00.800Z,21.06
2022-10-28T04:05:00.795Z,21.04
2022-10-28T04:06:00.804Z,21.09
2022-10-28T04:07:00.798Z,20.97
2022-10-28T04:08:00.800Z,21.09
2022-10-28T04:09:00.805Z,21.07
2022-10-28T04:10:00.904Z,21.12
2022-10-28T04:11:00.790Z,21.07
2022-10-28T04:12:00.851Z,21.06
2022-10-28T04:13:00.800Z,21.06
2022-10-28T04:14:00.802Z,21.06
2022-10-28T04:15:00.790Z,21.09
2022-10-28T04:16:00.789Z,21.04
2022-10-28T04:17:00.781Z,21.04
2022-10-28T04:18:00.793Z,21.06
2022-10-28T04:19:00.789Z,21.07
2022-10-28T04:20:00.795Z,21.04
2022-10-28T04:21:00.783Z,21.01
2022-10-28T04:22:00.774Z,21.03
2022-10-28T04:23:00.951Z,21.09
2022-10-28T04:24:00.775Z,21.07
2022-10-28T04:25:00.785Z,21.03
2022-10-28T04:26:00.786Z,21.01
2022-10-28T04:27:00.777Z,21.07
2022-10-28T04:28:00.776Z,21.06
2022-10-28T04:29:00.777Z,21.03
2022-10-28T04:30:00.778Z,21.01
2022-10-28T04:31:00.769Z,21.01
2022-10-28T04:32:00.778Z,20.97
2022-10-28T04:33:00.765Z,21.03
2022-10-28T04:34:00.789Z,21.04
2022-10-28T04:35:00.764Z,21.06
2022-10-28T04:36:00.762Z,21.09
2022-10-28T04:37:00.770Z,21.09
2022-10-28T04:38:00.767Z,21.06
2022-10-28T04:39:00.761Z,21.07
2022-10-28T04:40:00.764Z,21.04
2022-10-28T04:41:00.757Z,20.95
2022-10-28T04:42:00.776Z,21.03
2022-10-28T04:43:00.774Z,21.07
2022-10-28T04:44:00.756Z,21.09
2022-10-28T04:45:00.756Z,21.01
2022-10-28T04:46:00.756Z,20.99
2022-10-28T04:47:00.755Z,21.01
2022-10-28T04:48:00.752Z,21.01
2022-10-28T04:49:00.757Z,20.97
2022-10-28T04:50:00.745Z,21.10
2022-10-28T04:51:00.749Z,21.03
2022-10-28T04:52:00.739Z,21.03
2022-10-28T04:53:00.756Z,21.06
2022-10-28T04:54:00.746Z,21.06
2022-10-28T04:55:00.745Z,21.06
2022-10-28T04:56:00.744Z,21.07
2022-10-28T04:57:00.744Z,21.03
2022-10-28T04:58:00.757Z,21.09
2022-10-28T04:59:00.747Z,20.97
2022-10-28T05:00:00.749Z,21.06
2022-10-28T05:01:00.781Z,21.03
2022-10-28T05:02:00.899Z,21.04
2022-10-28T05:03:00.732Z,21.10
2022-10-28T05:04:00.742Z,21.09
2022-10-28T05:05:00.731Z,21.03
2022-10-28T05:06:00.735Z,21.03
2022-10-28T05:07:00.722Z,21.10
2022-10-28T05:08:00.743Z,21.04
2022-10-28T05:09:00.725Z,21.10
2022-10-28T05:10:00.733Z,21.06
2022-10-28T05:11:00.726Z,21.12
2022-10-28T05:12:00.722Z,21.03
2022-10-28T05:13:00.722Z,21.07
2022-10-28T05:14:00.748Z,21.10
2022-10-28T05:15:00.723Z,21.04
2022-10-28T05:16:00.720Z,21.07
2022-10-28T05:17:00.726Z,21.04
2022-10-28T05:18:00.720Z,21.10
2022-10-28T05:19:00.713Z,21.07
2022-10-28T05:20:00.716Z,21.06
2022-10-28T05:21:00.707Z,21.12
2022-10-28T05:22:00.710Z,21.04
2022-10-28T05:23:00.711Z,21.06
2022-10-28T05:24:00.703Z,21.07
2022-10-28T05:25:00.722Z,21.03
2022-10-28T05:26:00.713Z,21.09
2022-10-28T05:27:00.705Z,21.01
2022-10-28T05:28:00.720Z,21.13
2022-10-28T05:29:00.705Z,21.14
2022-10-28T05:30:00.719Z,21.12
2022-10-28T05:31:00.698Z,21.12
2022-10-28T05:32:00.787Z,21.13
2022-10-28T05:33:01.198Z,21.14
2022-10-28T05:34:00.702Z,21.21
2022-10-28T05:35:00.701Z,21.16
2022-10-28T05:36:00.704Z,21.27
2022-10-28T05:37:00.698Z,21.24
2022-10-28T05:38:00.696Z,21.32
2022-10-28T05:39:00.692Z,21.35
2022-10-28T05:40:00.713Z,21.31
2022-10-28T05:41:00.696Z,21.28
2022-10-28T05:42:00.694Z,21.35
2022-10-28T05:43:00.699Z,21.35
2022-10-28T05:44:00.686Z,21.40
2022-10-28T05:45:00.685Z,21.49
2022-10-28T05:46:00.704Z,21.46
2022-10-28T05:47:00.694Z,21.40
2022-10-28T05:48:00.682Z,21.44
2022-10-28T05:49:00.691Z,21.37
2022-10-28T05:50:00.688Z,21.50
2022-10-28T05:51:00.700Z,21.47
2022-10-28T05:52:00.683Z,21.58
2022-10-28T05:53:00.733Z,21.49
2022-10-28T05:54:00.689Z,21.46
2022-10-28T05:55:00.682Z,21.52
2022-10-28T05:56:00.686Z,21.53
2022-10-28T05:57:00.681Z,21.53
2022-10-28T05:58:00.682Z,21.56
2022-10-28T05:59:00.751Z,21.53
2022-10-28T06:00:00.683Z,21.65
2022-10-28T06:01:00.679Z,21.59
2022-10-28T06:02:00.823Z,21.56
2022-10-28T06:03:00.683Z,21.61
2022-10-28T06:04:00.740Z,21.61
2022-10-28T06:05:00.678Z,21.61
2022-10-28T06:06:00.672Z,21.64
2022-10-28T06:07:00.681Z,21.65
2022-10-28T06:08:00.675Z,21.61
2022-10-28T06:09:00.668Z,21.61
2022-10-28T06:10:00.671Z,21.65
2022-10-28T06:10:59.130Z,21.61
2022-10-28T06:11:59.130Z,21.64
2022-10-28T06:12:59.145Z,21.65
2022-10-28T06:13:59.137Z,21.67
2022-10-28T06:14:59.137Z,21.62
2022-10-28T06:15:59.143Z,21.62
2022-10-28T06:16:59.133Z,21.64
2022-10-28T06:17:59.182Z,21.68
2022-10-28T06:18:59.136Z,21.59
2022-10-28T06:19:59.132Z,21.65
2022-10-28T06:20:59.142Z,21.65
2022-10-28T06:21:59.138Z,21.65
2022-10-28T06:22:59.134Z,21.65
2022-10-28T06:23:59.183Z,21.64
2022-10-28T06:24:59.135Z,21.61
2022-10-28T06:25:59.241Z,21.64
2022-10-28T06:26:59.133Z,21.65
2022-10-28T06:27:59.138Z,21.62
2022-10-28T06:28:59.144Z,21.64
2022-10-28T06:29:59.140Z,21.62
2022-10-28T06:30:59.136Z,21.62
2022-10-28T06:31:59.163Z,21.64
2022-10-28T06:32:59.145Z,21.68
2022-10-28T06:33:59.155Z,21.65
2022-10-28T06:34:59.134Z,21.62
2022-10-28T06:35:59.137Z,21.67
2022-10-28T06:36:59.137Z,21.65
2022-10-28T06:37:59.143Z,21.58
2022-10-28T06:38:59.150Z,21.61
2022-10-28T06:39:59.145Z,21.58
2022-10-28T06:40:59.222Z,21.65
2022-10-28T06:41:59.143Z,21.62
2022-10-28T06:42:59.142Z,21.64
2022-10-28T06:43:59.137Z,21.61
2022-10-28T06:44:59.152Z,21.62
2022-10-28T06:45:59.138Z,21.59
2022-10-28T06:47:00.655Z,21.65
2022-10-28T06:48:00.653Z,21.61
2022-10-28T06:49:00.651Z,21.62
2022-10-28T06:50:00.675Z,21.59
2022-10-28T06:51:00.650Z,21.61
2022-10-28T06:52:00.664Z,21.67
2022-10-28T06:53:00.653Z,21.64
2022-10-28T06:54:00.664Z,21.65
2022-10-28T06:55:00.659Z,21.61
2022-10-28T06:56:00.656Z,21.64
2022-10-28T06:57:00.759Z,21.59
2022-10-28T06:58:00.671Z,21.53
2022-10-28T06:59:00.660Z,21.53
2022-10-28T07:00:00.659Z,21.59
2022-10-28T07:01:00.662Z,21.59
2022-10-28T07:02:00.885Z,21.62
2022-10-28T07:03:01.022Z,21.54
2022-10-28T07:04:00.663Z,21.61
2022-10-28T07:05:00.661Z,21.59
2022-10-28T07:06:00.744Z,21.54
2022-10-28T07:07:00.653Z,21.59
2022-10-28T07:08:00.695Z,21.59
2022-10-28T07:09:00.680Z,21.61
2022-10-28T07:10:00.659Z,21.56
2022-10-28T07:11:00.658Z,21.53
2022-10-28T07:12:04.926Z,21.54
2022-10-28T07:13:00.664Z,21.58
2022-10-28T07:14:00.668Z,21.58
2022-10-28T07:15:00.662Z,21.56
2022-10-28T07:16:00.658Z,21.54
2022-10-28T07:17:00.663Z,21.56
2022-10-28T07:18:00.653Z,21.59
2022-10-28T07:19:00.654Z,21.56
2022-10-28T07:20:00.723Z,21.56
2022-10-28T07:21:00.692Z,21.53
2022-10-28T07:22:00.688Z,21.52
2022-10-28T07:23:00.664Z,21.54
2022-10-28T07:24:00.664Z,21.56
2022-10-28T07:25:00.657Z,21.58
2022-10-28T07:26:00.680Z,21.54
2022-10-28T07:27:00.658Z,21.54
2022-10-28T07:28:00.663Z,21.58
2022-10-28T07:29:00.651Z,21.59
2022-10-28T07:30:00.659Z,21.56
2022-10-28T07:31:00.739Z,21.58
2022-10-28T07:32:00.686Z,21.58
2022-10-28T07:33:00.653Z,21.53
2022-10-28T07:34:00.653Z,21.58
2022-10-28T07:35:00.653Z,21.58
2022-10-28T07:36:00.652Z,21.52
2022-10-28T07:37:00.660Z,21.56
2022-10-28T07:38:00.669Z,21.54
2022-10-28T07:39:00.651Z,21.56
2022-10-28T07:40:00.655Z,21.54
2022-10-28T07:41:00.665Z,21.58
2022-10-28T07:42:00.655Z,21.50
2022-10-28T07:43:00.644Z,21.58
2022-10-28T07:44:00.647Z,21.56
2022-10-28T07:45:00.654Z,21.56
2022-10-28T07:46:00.656Z,21.52
2022-10-28T07:47:00.640Z,21.49
2022-10-28T07:48:00.648Z,21.53
2022-10-28T07:49:00.644Z,21.61
2022-10-28T07:50:00.640Z,21.56
2022-10-28T07:51:00.650Z,21.58
2022-10-28T07:52:00.638Z,21.58
2022-10-28T07:53:00.730Z,21.56
2022-10-28T07:54:00.674Z,21.53
2022-10-28T07:55:00.639Z,21.54
2022-10-28T07:56:00.644Z,21.56
2022-10-28T07:57:00.633Z,21.50
2022-10-28T07:58:00.641Z,21.50
2022-10-28T07:59:00.626Z,21.50
2022-10-28T08:00:00.638Z,21.52
2022-10-28T08:01:00.647Z,21.52
2022-10-28T08:02:00.706Z,21.50
2022-10-28T08:03:00.616Z,21.53
2022-10-28T08:04:00.619Z,21.53
2022-10-28T08:05:00.623Z,21.59
2022-10-28T08:06:00.617Z,21.50
2022-10-28T08:07:00.612Z,21.49
2022-10-28T08:08:00.606Z,21.58
2022-10-28T08:09:00.605Z,21.56
2022-10-28T08:10:00.623Z,21.54
2022-10-28T08:11:00.610Z,21.56
2022-10-28T08:12:00.593Z,21.50
2022-10-28T08:13:00.609Z,21.54
2022-10-28T08:14:00.587Z,21.58
2022-10-28T08:15:00.591Z,21.56
2022-10-28T08:16:00.593Z,21.56
2022-10-28T08:17:00.612Z,21.53
2022-10-28T08:18:00.616Z,21.49
2022-10-28T08:19:04.029Z,21.54
2022-10-28T08:20:00.586Z,21.59
2022-10-28T08:22:00.574Z,21.52
2022-10-28T08:23:02.836Z,21.50
2022-10-28T08:24:00.571Z,21.56
2022-10-28T08:25:00.568Z,21.50
2022-10-28T08:26:00.607Z,21.56
2022-10-28T08:27:00.576Z,21.56
2022-10-28T08:28:00.577Z,21.54
2022-10-28T08:29:00.568Z,21.54
2022-10-28T08:30:00.568Z,21.52
2022-10-28T08:31:08.275Z,21.49
2022-10-28T08:32:00.580Z,21.49
2022-10-28T08:33:00.567Z,21.49
2022-10-28T08:34:00.561Z,21.56
2022-10-28T08:35:00.567Z,21.58
2022-10-28T08:36:00.567Z,21.44
2022-10-28T08:37:00.592Z,21.53
2022-10-28T08:38:00.562Z,21.58
2022-10-28T08:39:00.561Z,21.44
2022-10-28T08:40:00.568Z,21.52
2022-10-28T08:41:00.561Z,21.53
2022-10-28T08:42:00.582Z,21.53
2022-10-28T08:43:00.588Z,21.43
2022-10-28T08:44:00.561Z,21.50
2022-10-28T08:45:00.564Z,21.44
2022-10-28T08:46:00.556Z,21.56
2022-10-28T08:47:00.559Z,21.52
2022-10-28T08:49:00.551Z,21.59
2022-10-28T08:50:00.559Z,21.44
2022-10-28T08:51:00.559Z,21.49
2022-10-28T08:52:00.548Z,21.50
2022-10-28T08:53:00.553Z,21.43
2022-10-28T08:54:00.553Z,21.47
2022-10-28T08:55:00.548Z,21.44
2022-10-28T08:56:00.547Z,21.47
2022-10-28T08:57:00.588Z,21.52
2022-10-28T08:58:00.564Z,21.50
2022-10-28T08:59:00.573Z,21.50
2022-10-28T09:00:00.546Z,21.50
2022-10-28T09:01:00.668Z,21.47
2022-10-28T09:02:00.551Z,21.49
2022-10-28T09:03:00.550Z,21.49
2022-10-28T09:04:00.550Z,21.50
2022-10-28T09:05:00.549Z,21.47
2022-10-28T09:06:00.545Z,21.50
2022-10-28T09:07:00.541Z,21.47
2022-10-28T09:08:00.547Z,21.49
2022-10-28T09:09:00.546Z,21.40
2022-10-28T09:10:00.555Z,21.49
2022-10-28T09:11:00.546Z,21.50
2022-10-28T09:12:00.543Z,21.40
2022-10-28T09:13:00.535Z,21.53
2022-10-28T09:14:00.576Z,21.49
2022-10-28T09:15:00.539Z,21.46
2022-10-28T09:16:00.535Z,21.47
2022-10-28T09:17:00.562Z,21.43
2022-10-28T09:18:00.533Z,21.40
2022-10-28T09:19:00.528Z,21.40
2022-10-28T09:20:00.540Z,21.49
2022-10-28T09:21:00.531Z,21.44
2022-10-28T09:22:00.529Z,21.46
2022-10-28T09:23:00.544Z,21.47
2022-10-28T09:24:00.530Z,21.46
2022-10-28T09:25:00.530Z,21.40
2022-10-28T09:26:00.531Z,21.49
2022-10-28T09:27:00.529Z,21.47
2022-10-28T09:28:00.532Z,21.43
2022-10-28T09:29:00.586Z,21.46
2022-10-28T09:30:00.544Z,21.40
2022-10-28T09:31:00.530Z,21.37
2022-10-28T09:32:00.522Z,21.40
2022-10-28T09:33:00.532Z,21.42
2022-10-28T09:34:00.529Z,21.42
2022-10-28T09:35:00.632Z,21.40
2022-10-28T09:36:00.522Z,21.42
2022-10-28T09:37:00.523Z,21.40
2022-10-28T09:38:00.527Z,21.37
2022-10-28T09:39:00.535Z,21.37
2022-10-28T09:40:00.516Z,21.43
2022-10-28T09:41:00.536Z,21.43
2022-10-28T09:42:00.669Z,21.37
2022-10-28T09:43:00.516Z,21.46
2022-10-28T09:44:00.517Z,21.46
2022-10-28T09:45:00.612Z,21.47
2022-10-28T09:46:00.530Z,21.47
2022-10-28T09:47:00.511Z,21.49
2022-10-28T09:48:00.513Z,21.49
2022-10-28T09:49:00.516Z,21.47
2022-10-28T09:50:00.503Z,21.49
2022-10-28T09:51:00.516Z,21.46
2022-10-28T09:52:00.506Z,21.46
2022-10-28T09:53:00.507Z,21.40
2022-10-28T09:54:00.505Z,21.47
2022-10-28T09:55:00.514Z,21.50
2022-10-28T09:56:00.553Z,21.50
2022-10-28T09:57:00.515Z,21.44
2022-10-28T09:58:00.518Z,21.43
2022-10-28T09:59:00.510Z,21.47
2022-10-28T10:00:00.505Z,21.44
2022-10-28T10:01:00.505Z,21.44
2022-10-28T10:02:00.670Z,21.40
2022-10-28T10:03:00.567Z,21.40
2022-10-28T10:04:00.498Z,21.49
2022-10-28T10:05:00.496Z,21.44
2022-10-28T10:06:00.500Z,21.40
2022-10-28T10:07:00.500Z,21.46
2022-10-28T10:08:00.491Z,21.44
2022-10-28T10:09:00.499Z,21.46
2022-10-28T10:10:00.560Z,21.37
2022-10-28T10:12:21.982Z,21.49
2022-10-28T10:13:21.986Z,21.47
2022-10-28T10:14:21.992Z,21.44
2022-10-28T10:15:21.985Z,21.47
2022-10-28T10:16:21.980Z,21.37
2022-10-28T10:17:22.003Z,21.54
2022-10-28T10:18:21.986Z,21.40
2022-10-28T10:19:21.982Z,21.43
2022-10-28T10:20:21.979Z,21.47
2022-10-28T10:21:21.979Z,21.47
2022-10-28T10:22:21.987Z,21.49
2022-10-28T10:23:21.986Z,21.49
2022-10-28T10:24:21.970Z,21.43
2022-10-28T10:25:21.972Z,21.40
2022-10-28T10:26:21.968Z,21.50
2022-10-28T10:27:21.967Z,21.49
2022-10-28T10:28:21.967Z,21.50
2022-10-28T10:29:21.976Z,21.52
2022-10-28T10:30:21.965Z,21.47
2022-10-28T10:31:21.967Z,21.47
2022-10-28T10:32:21.973Z,21.47
2022-10-28T10:33:21.984Z,21.47
2022-10-28T10:34:21.969Z,21.49
2022-10-28T10:35:21.970Z,21.52
2022-10-28T10:36:21.980Z,21.53
2022-10-28T10:37:21.980Z,21.50
2022-10-28T10:38:21.970Z,21.59
2022-10-28T10:39:21.964Z,21.46
2022-10-28T10:40:21.956Z,21.43
2022-10-28T10:41:21.963Z,21.49
2022-10-28T10:42:21.957Z,21.52
2022-10-28T10:43:21.964Z,21.52
2022-10-28T10:44:22.110Z,21.56
2022-10-28T10:45:21.958Z,21.49
2022-10-28T10:46:21.952Z,21.46
2022-10-28T10:47:21.966Z,21.54
2022-10-28T10:48:21.951Z,21.58
2022-10-28T10:49:21.977Z,21.50
2022-10-28T10:50:22.056Z,21.54
2022-10-28T10:51:21.952Z,21.58
2022-10-28T10:52:21.965Z,21.49
2022-10-28T10:53:21.965Z,21.56
2022-10-28T10:54:21.945Z,21.61
2022-10-28T10:55:21.954Z,21.53
2022-10-28T10:56:21.957Z,21.50
2022-10-28T10:57:21.949Z,21.56
2022-10-28T10:58:21.970Z,21.56
2022-10-28T10:59:21.944Z,21.52
2022-10-28T11:00:21.947Z,21.56
2022-10-28T11:01:22.097Z,21.47
2022-10-28T11:02:22.082Z,21.54
2022-10-28T11:03:21.947Z,21.54
2022-10-28T11:04:21.946Z,21.58
2022-10-28T11:05:24.447Z,21.56
2022-10-28T11:06:24.359Z,21.54
2022-10-28T11:07:22.045Z,21.62
2022-10-28T11:08:21.936Z,21.54
2022-10-28T11:09:21.962Z,21.53
2022-10-28T11:10:21.937Z,21.59
2022-10-28T11:11:21.936Z,21.54
2022-10-28T11:12:21.946Z,21.54
2022-10-28T11:13:21.932Z,21.58
2022-10-28T11:14:21.932Z,21.54
2022-10-28T11:15:21.941Z,21.53
2022-10-28T11:16:21.938Z,21.54
2022-10-28T11:17:22.022Z,21.52
2022-10-28T11:18:21.933Z,21.64
2022-10-28T11:19:22.013Z,21.52
2022-10-28T11:20:21.934Z,21.52
2022-10-28T11:22:22.113Z,21.64
2022-10-28T11:23:21.935Z,21.65
2022-10-28T11:24:21.936Z,21.61
2022-10-28T11:25:21.938Z,21.58
2022-10-28T11:26:21.931Z,21.56
2022-10-28T11:27:21.931Z,21.61
2022-10-28T11:28:21.930Z,21.61
2022-10-28T11:29:21.923Z,21.61
2022-10-28T11:30:21.931Z,21.53
2022-10-28T11:31:21.927Z,21.67
2022-10-28T11:32:21.926Z,21.67
2022-10-28T11:33:30.756Z,21.56
2022-10-28T11:34:21.925Z,21.58
2022-10-28T11:35:21.924Z,21.64
2022-10-28T11:36:21.936Z,21.62
2022-10-28T11:37:21.982Z,21.59
2022-10-28T11:38:21.912Z,21.58
2022-10-28T11:39:21.918Z,21.65
2022-10-28T11:40:21.915Z,21.61
2022-10-28T11:41:21.915Z,21.65
2022-10-28T11:42:21.910Z,21.58
2022-10-28T11:43:21.918Z,21.58
2022-10-28T11:44:21.925Z,21.61
2022-10-28T11:45:21.920Z,21.62
2022-10-28T11:46:21.914Z,21.64
2022-10-28T11:47:21.916Z,21.58
2022-10-28T11:48:21.921Z,21.65
2022-10-28T11:49:21.904Z,21.65
2022-10-28T11:50:21.916Z,21.62
2022-10-28T11:51:21.904Z,21.59
2022-10-28T11:52:21.912Z,21.61
2022-10-28T11:53:21.921Z,21.64
2022-10-28T11:54:21.901Z,21.59
2022-10-28T11:55:21.941Z,21.69
2022-10-28T11:56:21.909Z,21.59
2022-10-28T11:57:21.902Z,21.67
2022-10-28T11:58:21.906Z,21.61
2022-10-28T11:59:21.915Z,21.65
2022-10-28T12:00:21.945Z,21.61
2022-10-28T12:01:21.907Z,21.61
2022-10-28T12:02:22.004Z,21.64
2022-10-28T12:03:21.977Z,21.62
2022-10-28T12:04:21.912Z,21.61
2022-10-28T12:05:21.894Z,21.59
2022-10-28T12:06:21.906Z,21.67
2022-10-28T12:07:21.900Z,21.61
2022-10-28T12:08:21.901Z,21.61
2022-10-28T12:09:21.907Z,21.68
2022-10-28T12:10:21.894Z,21.62
2022-10-28T12:11:21.892Z,21.64
2022-10-28T12:12:21.903Z,21.65
2022-10-28T12:13:21.887Z,21.62
2022-10-28T12:14:21.910Z,21.67
2022-10-28T12:15:21.897Z,21.64
2022-10-28T12:16:21.889Z,21.67
2022-10-28T12:17:21.889Z,21.62
2022-10-28T12:18:21.901Z,21.65
2022-10-28T12:19:21.903Z,21.65
2022-10-28T12:20:21.892Z,21.65
2022-10-28T12:21:21.998Z,21.62
2022-10-28T12:22:21.895Z,21.64
2022-10-28T12:23:21.888Z,21.67
2022-10-28T12:24:21.886Z,21.67
2022-10-28T12:25:22.031Z,21.65
2022-10-28T12:26:21.906Z,21.77
2022-10-28T12:27:21.883Z,21.71
2022-10-28T12:28:22.005Z,21.65
2022-10-28T12:29:21.878Z,21.69
2022-10-28T12:30:21.884Z,21.64
2022-10-28T12:31:21.880Z,21.72
2022-10-28T12:32:21.878Z,21.68
2022-10-28T12:33:21.880Z,21.68
2022-10-28T12:34:21.880Z,21.65
2022-10-28T12:35:21.883Z,21.67
2022-10-28T12:36:21.870Z,21.67
2022-10-28T12:37:21.879Z,21.69
2022-10-28T12:38:21.882Z,21.67
2022-10-28T12:39:21.872Z,21.69
2022-10-28T12:40:21.878Z,21.77
2022-10-28T12:41:21.903Z,21.69
2022-10-28T12:42:21.865Z,21.72
2022-10-28T12:43:21.889Z,21.69
2022-10-28T12:44:21.881Z,21.72
2022-10-28T12:45:21.873Z,21.67
2022-10-28T12:46:21.886Z,21.72
2022-10-28T12:47:21.882Z,21.67
2022-10-28T12:48:21.876Z,21.69
2022-10-28T12:49:21.869Z,21.77
2022-10-28T12:50:21.867Z,21.74
2022-10-28T12:51:21.865Z,21.72
2022-10-28T12:52:21.865Z,21.74
2022-10-28T12:53:21.864Z,21.71
2022-10-28T12:54:21.873Z,21.75
2022-10-28T12:55:21.864Z,21.75
2022-10-28T12:56:21.917Z,21.72
2022-10-28T12:57:21.875Z,21.77